Latest Coastal Weather Observations for Sydney Harbour

IDN60701

Issued at 3:01 pm EST Sunday 30 April 2017 (issued every 10 minutes, with the page automatically refreshed every 10 minutes)

About coastal observations | Map of coastal stations | Coastal observations for NSW | Marine services | Other Formats
Station Details ID: 066196 Name: WEDDING CAKE WEST Lat: -33.84 Lon: 151.26 Height: 6.0 m
Data from the previous 72 hours. | See also: Recent months at Sydney Harbour
Date/Time
EST
Temp
°C
Wind Pressure Rain since
9am
mm
Weather Cloud Vis
km
Sea
Height
m
Swell
Dir  Spd
kts
Gust
kts
hPa Trend Height
m
Period
s
Dir
30/02:30pm 20.3 S 11 15 - - - - - - - - - -
30/02:00pm 20.1 SSE 11 15 - - - - - - - - - -
30/01:30pm 20.1 S 12 15 - - - - - - - - - -
30/01:00pm 19.8 SSE 11 15 - - - - - - - - - -
30/12:30pm 20.0 SSE 11 14 - - - - - - - - - -
30/12:00pm 19.7 SSE 12 15 - - - - - - - - - -
30/11:30am 20.1 S 12 15 - - - - - - - - - -
30/11:00am 19.8 S 12 17 - - - - - - - - - -
30/10:30am 19.6 SW 9 13 - - - - - - - - - -
30/10:00am 18.1 WSW 10 13 - - - - - - - - - -
30/09:30am 17.6 SW 10 11 - - - - - - - - - -
30/09:00am 17.3 SW 6 8 - - - - - - - - - -
30/08:30am 16.0 WSW 10 14 - - - - - - - - - -
30/08:00am 16.0 W 9 12 - - - - - - - - - -
30/07:30am 15.8 W 10 13 - - - - - - - - - -
30/07:00am 16.0 W 11 13 - - - - - - - - - -
30/06:30am 15.9 WSW 11 13 - - - - - - - - - -
30/06:00am 16.4 W 9 12 - - - - - - - - - -
30/05:30am 16.9 WSW 5 6 - - - - - - - - - -
30/05:00am 17.1 WSW 7 9 - - - - - - - - - -
30/04:30am 16.6 SW 8 11 - - - - - - - - - -
30/04:00am 16.7 WSW 6 8 - - - - - - - - - -
30/03:30am 16.2 WSW 9 11 - - - - - - - - - -
30/03:00am 16.2 WSW 9 11 - - - - - - - - - -
30/02:30am 16.1 WSW 11 14 - - - - - - - - - -
30/02:00am 16.5 W 7 10 - - - - - - - - - -
30/01:30am 16.4 W 10 12 - - - - - - - - - -
30/01:00am 16.6 W 8 10 - - - - - - - - - -
30/12:30am 16.9 WSW 9 11 - - - - - - - - - -
30/12:00am 16.9 W 9 10 - - - - - - - - - -
 
Date/Time
EST
Temp
°C
Wind Pressure Rain since
9am
mm
Weather Cloud Vis
km
Sea
Height
m
Swell
Dir  Spd
kts
Gust
kts
hPa Trend Height
m
Period
s
Dir
29/11:30pm 17.3 WSW 8 9 - - - - - - - - - -
29/11:00pm 17.8 W 9 11 - - - - - - - - - -
29/10:30pm 17.7 W 9 11 - - - - - - - - - -
29/10:00pm 18.6 SSW 8 11 - - - - - - - - - -
29/09:30pm 19.7 SSE 9 12 - - - - - - - - - -
29/09:00pm 19.3 S 6 11 - - - - - - - - - -
29/08:30pm 19.2 S 5 7 - - - - - - - - - -
29/08:00pm 19.3 S 9 11 - - - - - - - - - -
29/07:30pm 19.1 S 8 10 - - - - - - - - - -
29/07:00pm 19.0 S 6 8 - - - - - - - - - -
29/06:30pm 18.8 S 4 6 - - - - - - - - - -
29/06:00pm 18.9 S 5 7 - - - - - - - - - -
29/05:30pm 19.2 S 7 8 - - - - - - - - - -
29/05:00pm 19.4 S 10 12 - - - - - - - - - -
29/04:30pm 19.7 S 8 11 - - - - - - - - - -
29/04:00pm 19.9 SSE 8 11 - - - - - - - - - -
29/03:30pm 20.3 SSE 9 11 - - - - - - - - - -
29/03:00pm 20.4 ESE 9 11 - - - - - - - - - -
29/02:30pm 20.2 ESE 8 11 - - - - - - - - - -
29/02:00pm 20.3 SE 6 9 - - - - - - - - - -
29/01:30pm 20.7 SE 5 6 - - - - - - - - - -
29/01:00pm 19.5 W 3 5 - - - - - - - - - -
29/12:30pm 19.1 W 5 6 - - - - - - - - - -
29/12:00pm 18.5 W 6 7 - - - - - - - - - -
29/11:30am 17.9 W 7 9 - - - - - - - - - -
29/11:00am 17.3 WSW 7 10 - - - - - - - - - -
29/10:30am 16.7 WSW 9 11 - - - - - - - - - -
29/10:00am 15.9 WSW 12 16 - - - - - - - - - -
29/09:30am 15.1 WSW 13 17 - - - - - - - - - -
29/09:00am 14.5 W 14 18 - - - - - - - - - -
29/08:30am 13.9 W 14 17 - - - - - - - - - -
29/08:00am 13.6 W 14 17 - - - - - - - - - -
29/07:30am 13.4 W 11 14 - - - - - - - - - -
29/07:00am 12.9 W 12 16 - - - - - - - - - -
29/06:30am 13.3 W 9 13 - - - - - - - - - -
29/06:00am 12.8 W 11 15 - - - - - - - - - -
29/05:30am 12.5 W 10 13 - - - - - - - - - -
29/05:00am 13.0 WSW 10 13 - - - - - - - - - -
29/04:30am 13.2 WSW 11 14 - - - - - - - - - -
29/04:00am 13.4 WSW 9 11 - - - - - - - - - -
29/03:30am 13.6 WSW 6 10 - - - - - - - - - -
29/03:00am 13.5 WSW 9 11 - - - - - - - - - -
29/02:30am 13.6 W 8 10 - - - - - - - - - -
29/02:00am 14.0 W 9 11 - - - - - - - - - -
29/01:30am 14.3 WSW 9 11 - - - - - - - - - -
29/01:00am 14.5 W 5 6 - - - - - - - - - -
29/12:30am 14.7 W 6 8 - - - - - - - - - -
29/12:00am 15.1 W 9 11 - - - - - - - - - -
 
Date/Time
EST
Temp
°C
Wind Pressure Rain since
9am
mm
Weather Cloud Vis
km
Sea
Height
m
Swell
Dir  Spd
kts
Gust
kts
hPa Trend Height
m
Period
s
Dir
28/11:30pm 15.1 W 11 13 - - - - - - - - - -
28/11:00pm 16.4 S 1 4 - - - - - - - - - -
28/10:30pm 16.5 S 3 4 - - - - - - - - - -
28/10:00pm 16.8 CALM 0 0 - - - - - - - - - -
28/09:30pm 16.8 S 3 4 - - - - - - - - - -
28/09:00pm 16.7 S 3 4 - - - - - - - - - -
28/08:30pm 17.3 S 4 5 - - - - - - - - - -
28/08:00pm 17.4 S 4 5 - - - - - - - - - -
28/07:30pm 17.5 S 4 5 - - - - - - - - - -
28/07:00pm 18.0 S 5 6 - - - - - - - - - -
28/06:30pm 17.7 S 5 7 - - - - - - - - - -
28/06:00pm 18.1 S 6 7 - - - - - - - - - -
28/05:30pm 18.1 S 7 9 - - - - - - - - - -
28/05:00pm 18.1 SSE 7 9 - - - - - - - - - -
28/04:30pm 18.3 SSE 9 11 - - - - - - - - - -
28/04:00pm 18.4 SSE 10 13 - - - - - - - - - -
28/03:30pm 18.5 S 11 13 - - - - - - - - - -
28/03:00pm 18.5 SSE 12 16 - - - - - - - - - -
28/02:30pm 18.5 SSE 12 16 - - - - - - - - - -
28/02:00pm 18.2 SSE 14 17 - - - - - - - - - -
28/01:30pm 18.1 S 14 17 - - - - - - - - - -
28/01:00pm 18.1 SSW 10 14 - - - - - - - - - -
28/12:30pm 17.8 SSW 11 16 - - - - - - - - - -
28/12:00pm 17.4 SSW 10 14 - - - - - - - - - -
28/11:30am 17.1 SSW 11 15 - - - - - - - - - -
28/11:00am 16.4 WSW 9 12 - - - - - - - - - -
28/10:30am 15.8 W 11 13 - - - - - - - - - -
28/10:00am 15.1 W 12 14 - - - - - - - - - -
28/09:30am 14.5 W 13 17 - - - - - - - - - -
28/09:00am 13.8 WSW 12 15 - - - - - - - - - -
28/08:30am 13.1 WSW 13 16 - - - - - - - - - -
28/08:00am 12.6 W 15 19 - - - - - - - - - -
28/07:30am 12.2 W 15 21 - - - - - - - - - -
28/07:00am 11.9 W 17 20 - - - - - - - - - -
28/06:30am 11.8 W 17 21 - - - - - - - - - -
28/06:00am 11.9 W 15 19 - - - - - - - - - -
28/05:30am 12.3 W 16 20 - - - - - - - - - -
28/05:00am 12.4 W 16 20 - - - - - - - - - -
28/04:30am 12.7 W 16 20 - - - - - - - - - -
28/04:00am 13.0 W 15 18 - - - - - - - - - -
28/03:30am 13.4 WSW 15 21 - - - - - - - - - -
28/03:00am 14.1 WSW 15 19 - - - - - - - - - -
28/02:30am 14.7 SW 19 22 - - - - - - - - - -
28/02:00am 15.2 SW 19 23 - - - - - - - - - -
28/01:30am 15.6 SW 19 26 - - - - - - - - - -
28/01:00am 15.8 SW 21 28 - - - - - - - - - -
28/12:30am 16.0 SW 21 27 - - - - - - - - - -
28/12:00am 16.4 SSW 25 31 - - - - - - - - - -
 
Date/Time
EST
Temp
°C
Wind Pressure Rain since
9am
mm
Weather Cloud Vis
km
Sea
Height
m
Swell
Dir  Spd
kts
Gust
kts
hPa Trend Height
m
Period
s
Dir
27/11:30pm 16.8 SW 21 26 - - - - - - - - - -
27/11:00pm 16.5 SW 17 21 - - - - - - - - - -
27/10:30pm 16.8 SW 17 21 - - - - - - - - - -
27/10:00pm 17.0 SW 16 21 - - - - - - - - - -
27/09:30pm 16.9 SSW 14 18 - - - - - - - - - -
27/09:00pm 17.4 SSW 16 19 - - - - - - - - - -
27/08:30pm 17.6 SW 20 23 - - - - - - - - - -
27/08:00pm 17.7 SW 20 27 - - - - - - - - - -
27/07:30pm 17.5 SW 17 23 - - - - - - - - - -
27/07:00pm 17.5 SW 17 20 - - - - - - - - - -
27/06:30pm 17.4 SW 17 22 - - - - - - - - - -
27/06:00pm 17.6 SW 17 21 - - - - - - - - - -
27/05:30pm 17.4 SW 20 27 - - - - - - - - - -
27/05:00pm 17.5 SSW 21 24 - - - - - - - - - -
27/04:30pm 17.4 SSW 21 25 - - - - - - - - - -
27/04:00pm 17.4 SSW 19 26 - - - - - - - - - -
27/03:30pm 17.4 SW 21 26 - - - - - - - - - -

Other Formats:

Comma delimited format used in spreadsheet applications
http://www.bom.gov.au/fwo/IDN60701/IDN60701.95766.axf

JavaScript Object Notation format (JSON) in row-major order
http://www.bom.gov.au/fwo/IDN60701/IDN60701.95766.json